sensor_id;sensor_type;location;lat;lon;timestamp;pressure;altitude;pressure_sealevel;temperature;humidity
2681;BME280;1350;42.134;24.708;2022-10-26T00:02:04;99670.47;;;16.47;93.08
2681;BME280;1350;42.134;24.708;2022-10-26T00:04:30;99663.38;;;16.59;92.14
2681;BME280;1350;42.134;24.708;2022-10-26T00:06:57;99670.41;;;16.60;91.70
2681;BME280;1350;42.134;24.708;2022-10-26T00:09:24;99671.50;;;16.57;91.45
2681;BME280;1350;42.134;24.708;2022-10-26T00:11:51;99668.91;;;16.56;91.63
2681;BME280;1350;42.134;24.708;2022-10-26T00:14:18;99667.50;;;16.63;91.72
2681;BME280;1350;42.134;24.708;2022-10-26T00:16:45;99667.50;;;16.63;91.61
2681;BME280;1350;42.134;24.708;2022-10-26T00:19:13;99678.19;;;16.39;92.87
2681;BME280;1350;42.134;24.708;2022-10-26T00:21:39;99680.03;;;16.62;91.24
2681;BME280;1350;42.134;24.708;2022-10-26T00:24:06;99671.53;;;16.21;93.59
2681;BME280;1350;42.134;24.708;2022-10-26T00:26:33;99679.09;;;16.27;93.48
2681;BME280;1350;42.134;24.708;2022-10-26T00:29:00;99678.63;;;16.33;93.09
2681;BME280;1350;42.134;24.708;2022-10-26T00:31:27;99676.53;;;16.26;94.76
2681;BME280;1350;42.134;24.708;2022-10-26T00:33:54;99674.84;;;16.25;93.79
2681;BME280;1350;42.134;24.708;2022-10-26T00:36:23;99672.72;;;16.17;93.52
2681;BME280;1350;42.134;24.708;2022-10-26T00:38:52;99676.00;;;16.21;92.04
2681;BME280;1350;42.134;24.708;2022-10-26T00:41:22;99680.13;;;16.14;91.01
2681;BME280;1350;42.134;24.708;2022-10-26T00:43:49;99676.69;;;16.12;89.59
2681;BME280;1350;42.134;24.708;2022-10-26T00:46:19;99676.53;;;16.26;87.25
2681;BME280;1350;42.134;24.708;2022-10-26T00:48:51;99676.31;;;16.29;86.31
2681;BME280;1350;42.134;24.708;2022-10-26T00:51:25;99682.06;;;16.35;85.72
2681;BME280;1350;42.134;24.708;2022-10-26T00:53:54;99678.19;;;16.39;85.18
2681;BME280;1350;42.134;24.708;2022-10-26T00:56:22;99682.16;;;16.46;84.40
2681;BME280;1350;42.134;24.708;2022-10-26T00:58:49;99683.50;;;16.52;84.21
2681;BME280;1350;42.134;24.708;2022-10-26T01:01:17;99679.84;;;16.53;84.07
2681;BME280;1350;42.134;24.708;2022-10-26T01:03:44;99679.13;;;16.51;83.59
2681;BME280;1350;42.134;24.708;2022-10-26T01:06:12;99676.69;;;16.48;84.08
2681;BME280;1350;42.134;24.708;2022-10-26T01:08:42;99671.56;;;16.45;84.59
2681;BME280;1350;42.134;24.708;2022-10-26T01:11:09;99672.91;;;16.50;84.46
2681;BME280;1350;42.134;24.708;2022-10-26T01:13:37;99678.16;;;16.52;84.95
2681;BME280;1350;42.134;24.708;2022-10-26T01:19:04;99687.34;;;16.60;85.05
2681;BME280;1350;42.134;24.708;2022-10-26T01:21:41;99687.72;;;16.67;84.84
2681;BME280;1350;42.134;24.708;2022-10-26T01:24:43;99682.59;;;16.64;85.31
2681;BME280;1350;42.134;24.708;2022-10-26T01:27:27;99676.41;;;16.74;85.62
2681;BME280;1350;42.134;24.708;2022-10-26T01:30:20;99670.38;;;16.83;85.46
2681;BME280;1350;42.134;24.708;2022-10-26T01:33:24;99674.81;;;16.96;85.55
2681;BME280;1350;42.134;24.708;2022-10-26T01:36:02;99678.34;;;17.07;85.26
2681;BME280;1350;42.134;24.708;2022-10-26T01:38:41;99677.41;;;17.08;84.76
2681;BME280;1350;42.134;24.708;2022-10-26T01:41:12;99674.47;;;17.11;84.83
2681;BME280;1350;42.134;24.708;2022-10-26T01:43:44;99675.44;;;17.21;84.31
2681;BME280;1350;42.134;24.708;2022-10-26T01:46:17;99676.31;;;17.22;83.64
2681;BME280;1350;42.134;24.708;2022-10-26T01:48:46;99672.28;;;17.16;83.21
2681;BME280;1350;42.134;24.708;2022-10-26T01:51:17;99672.03;;;17.19;82.84
2681;BME280;1350;42.134;24.708;2022-10-26T01:53:45;99674.47;;;17.22;83.00
2681;BME280;1350;42.134;24.708;2022-10-26T01:56:17;99671.78;;;17.11;82.98
2681;BME280;1350;42.134;24.708;2022-10-26T01:59:18;99665.47;;;17.12;82.96
2681;BME280;1350;42.134;24.708;2022-10-26T02:02:09;99658.75;;;17.18;82.65
2681;BME280;1350;42.134;24.708;2022-10-26T02:04:45;99669.34;;;17.19;82.39
2681;BME280;1350;42.134;24.708;2022-10-26T02:07:22;99663.16;;;17.19;82.30
2681;BME280;1350;42.134;24.708;2022-10-26T02:09:58;99660.59;;;17.17;82.29
2681;BME280;1350;42.134;24.708;2022-10-26T02:12:37;99675.31;;;17.12;82.32
2681;BME280;1350;42.134;24.708;2022-10-26T02:15:06;99670.81;;;17.12;82.13
2681;BME280;1350;42.134;24.708;2022-10-26T02:17:43;99675.31;;;17.12;82.14
2681;BME280;1350;42.134;24.708;2022-10-26T02:20:15;99678.38;;;17.18;80.99
2681;BME280;1350;42.134;24.708;2022-10-26T02:22:47;99678.50;;;17.17;81.29
2681;BME280;1350;42.134;24.708;2022-10-26T02:25:19;99678.63;;;17.15;81.48
2681;BME280;1350;42.134;24.708;2022-10-26T02:27:52;99679.94;;;17.21;81.22
2681;BME280;1350;42.134;24.708;2022-10-26T02:30:20;99674.97;;;17.27;80.81
2681;BME280;1350;42.134;24.708;2022-10-26T02:32:51;99674.03;;;17.28;80.74
2681;BME280;1350;42.134;24.708;2022-10-26T02:35:21;99677.16;;;17.33;80.06
2681;BME280;1350;42.134;24.708;2022-10-26T02:37:51;99674.00;;;17.39;79.05
2681;BME280;1350;42.134;24.708;2022-10-26T02:40:23;99674.88;;;17.40;79.01
2681;BME280;1350;42.134;24.708;2022-10-26T02:42:52;99674.25;;;17.36;79.17
2681;BME280;1350;42.134;24.708;2022-10-26T02:45:21;99674.75;;;17.41;78.94
2681;BME280;1350;42.134;24.708;2022-10-26T02:47:52;99681.06;;;17.29;79.64
2681;BME280;1350;42.134;24.708;2022-10-26T02:50:21;99684.25;;;17.34;79.78
2681;BME280;1350;42.134;24.708;2022-10-26T02:52:56;99686.59;;;17.39;80.03
2681;BME280;1350;42.134;24.708;2022-10-26T02:55:29;99689.50;;;17.36;80.28
2681;BME280;1350;42.134;24.708;2022-10-26T02:58:01;99686.81;;;17.36;80.69
2681;BME280;1350;42.134;24.708;2022-10-26T03:00:29;99689.84;;;17.42;80.54
2681;BME280;1350;42.134;24.708;2022-10-26T03:02:58;99695.22;;;17.42;80.06
2681;BME280;1350;42.134;24.708;2022-10-26T03:05:29;99692.94;;;17.49;79.10
2681;BME280;1350;42.134;24.708;2022-10-26T03:07:57;99685.53;;;17.52;78.78
2681;BME280;1350;42.134;24.708;2022-10-26T03:10:25;99685.53;;;17.63;77.76
2681;BME280;1350;42.134;24.708;2022-10-26T03:12:51;99695.41;;;17.63;77.07
2681;BME280;1350;42.134;24.708;2022-10-26T03:15:18;99686.16;;;17.56;75.36
2681;BME280;1350;42.134;24.708;2022-10-26T03:17:45;99689.84;;;17.42;75.45
2681;BME280;1350;42.134;24.708;2022-10-26T03:20:13;99697.78;;;17.33;75.44
2681;BME280;1350;42.134;24.708;2022-10-26T03:22:40;99693.72;;;17.16;76.35
2681;BME280;1350;42.134;24.708;2022-10-26T03:25:07;99689.56;;;17.12;76.75
2681;BME280;1350;42.134;24.708;2022-10-26T03:27:34;99688.59;;;17.13;77.01
2681;BME280;1350;42.134;24.708;2022-10-26T03:30:03;99681.66;;;17.11;77.60
2681;BME280;1350;42.134;24.708;2022-10-26T03:32:30;99686.53;;;17.17;77.91
2681;BME280;1350;42.134;24.708;2022-10-26T03:34:57;99691.78;;;17.18;77.94
2681;BME280;1350;42.134;24.708;2022-10-26T03:37:25;99690.91;;;17.18;78.01
2681;BME280;1350;42.134;24.708;2022-10-26T03:39:52;99696.91;;;17.21;77.75
2681;BME280;1350;42.134;24.708;2022-10-26T03:42:19;99698.13;;;17.17;77.91
2681;BME280;1350;42.134;24.708;2022-10-26T03:44:46;99699.41;;;17.12;78.17
2681;BME280;1350;42.134;24.708;2022-10-26T03:47:13;99707.59;;;17.10;77.64
2681;BME280;1350;42.134;24.708;2022-10-26T03:49:39;99705.13;;;17.07;78.11
2681;BME280;1350;42.134;24.708;2022-10-26T03:52:06;99714.88;;;16.97;78.82
2681;BME280;1350;42.134;24.708;2022-10-26T03:54:34;99711.44;;;16.95;78.86
2681;BME280;1350;42.134;24.708;2022-10-26T03:57:01;99721.16;;;16.85;79.21
2681;BME280;1350;42.134;24.708;2022-10-26T03:59:28;99716.75;;;16.84;78.97
2681;BME280;1350;42.134;24.708;2022-10-26T04:01:55;99720.88;;;16.77;79.37
2681;BME280;1350;42.134;24.708;2022-10-26T04:04:21;99719.72;;;16.68;79.96
2681;BME280;1350;42.134;24.708;2022-10-26T04:06:48;99724.25;;;16.68;80.29
2681;BME280;1350;42.134;24.708;2022-10-26T04:09:15;99723.72;;;16.63;80.65
2681;BME280;1350;42.134;24.708;2022-10-26T04:11:43;99729.44;;;16.58;80.73
2681;BME280;1350;42.134;24.708;2022-10-26T04:14:10;99724.41;;;16.54;81.11
2681;BME280;1350;42.134;24.708;2022-10-26T04:16:36;99730.00;;;16.51;81.61
2681;BME280;1350;42.134;24.708;2022-10-26T04:19:03;99734.94;;;16.44;81.75
2681;BME280;1350;42.134;24.708;2022-10-26T04:21:30;99742.13;;;16.44;81.34
2681;BME280;1350;42.134;24.708;2022-10-26T04:23:57;99735.38;;;16.38;81.48
2681;BME280;1350;42.134;24.708;2022-10-26T04:26:24;99745.22;;;16.38;81.25
2681;BME280;1350;42.134;24.708;2022-10-26T04:28:52;99744.41;;;16.25;82.17
2681;BME280;1350;42.134;24.708;2022-10-26T04:31:19;99740.41;;;16.30;82.64
2681;BME280;1350;42.134;24.708;2022-10-26T04:33:46;99745.03;;;16.28;82.99
2681;BME280;1350;42.134;24.708;2022-10-26T04:36:12;99755.56;;;16.42;83.16
2681;BME280;1350;42.134;24.708;2022-10-26T04:38:39;99753.34;;;16.49;83.11
2681;BME280;1350;42.134;24.708;2022-10-26T04:41:06;99746.56;;;16.56;82.00
2681;BME280;1350;42.134;24.708;2022-10-26T04:43:33;99750.63;;;16.61;80.94
2681;BME280;1350;42.134;24.708;2022-10-26T04:46:01;99758.84;;;16.71;81.55
2681;BME280;1350;42.134;24.708;2022-10-26T04:48:27;99759.94;;;16.79;81.85
2681;BME280;1350;42.134;24.708;2022-10-26T04:50:57;99764.31;;;16.80;82.24
2681;BME280;1350;42.134;24.708;2022-10-26T04:53:24;99761.34;;;16.85;82.79
2681;BME280;1350;42.134;24.708;2022-10-26T04:55:55;99763.78;;;16.88;83.67
2681;BME280;1350;42.134;24.708;2022-10-26T04:58:22;99773.56;;;17.00;83.68
2681;BME280;1350;42.134;24.708;2022-10-26T05:00:49;99775.91;;;17.05;84.25
2681;BME280;1350;42.134;24.708;2022-10-26T05:03:17;99770.72;;;17.14;83.97
2681;BME280;1350;42.134;24.708;2022-10-26T05:05:44;99763.09;;;17.43;83.21
2681;BME280;1350;42.134;24.708;2022-10-26T05:08:12;99772.84;;;17.89;80.25
2681;BME280;1350;42.134;24.708;2022-10-26T05:10:38;99781.84;;;18.43;77.13
2681;BME280;1350;42.134;24.708;2022-10-26T05:13:05;99778.66;;;19.03;73.49
2681;BME280;1350;42.134;24.708;2022-10-26T05:15:32;99776.66;;;19.57;70.13
2681;BME280;1350;42.134;24.708;2022-10-26T05:18:01;99775.53;;;20.31;65.68
2681;BME280;1350;42.134;24.708;2022-10-26T05:20:31;99785.50;;;21.08;61.83
2681;BME280;1350;42.134;24.708;2022-10-26T05:22:59;99783.31;;;21.69;58.83
2681;BME280;1350;42.134;24.708;2022-10-26T05:25:28;99781.16;;;22.28;56.86
2681;BME280;1350;42.134;24.708;2022-10-26T05:27:56;99790.94;;;22.02;56.02
2681;BME280;1350;42.134;24.708;2022-10-26T05:30:23;99792.88;;;22.10;55.87
2681;BME280;1350;42.134;24.708;2022-10-26T05:32:52;99793.41;;;22.23;55.91
2681;BME280;1350;42.134;24.708;2022-10-26T05:35:19;99800.47;;;22.33;55.72
2681;BME280;1350;42.134;24.708;2022-10-26T05:37:48;99797.72;;;22.79;54.93
2681;BME280;1350;42.134;24.708;2022-10-26T05:40:14;99804.84;;;22.98;54.58
2681;BME280;1350;42.134;24.708;2022-10-26T05:42:42;99794.97;;;23.59;53.16
2681;BME280;1350;42.134;24.708;2022-10-26T05:45:09;99805.88;;;23.93;52.16
2681;BME280;1350;42.134;24.708;2022-10-26T05:47:37;99802.06;;;24.03;51.79
2681;BME280;1350;42.134;24.708;2022-10-26T05:50:04;99809.28;;;24.20;51.54
2681;BME280;1350;42.134;24.708;2022-10-26T05:52:37;99811.59;;;24.66;50.08
2681;BME280;1350;42.134;24.708;2022-10-26T05:55:07;99811.22;;;25.03;49.84
2681;BME280;1350;42.134;24.708;2022-10-26T05:57:35;99816.31;;;25.22;49.33
2681;BME280;1350;42.134;24.708;2022-10-26T06:00:06;99817.53;;;25.20;48.93
2681;BME280;1350;42.134;24.708;2022-10-26T06:02:38;99822.34;;;25.34;48.06
2681;BME280;1350;42.134;24.708;2022-10-26T06:05:09;99821.31;;;25.59;47.89
2681;BME280;1350;42.134;24.708;2022-10-26T06:07:37;99826.41;;;25.94;47.20
2681;BME280;1350;42.134;24.708;2022-10-26T06:10:08;99835.94;;;26.06;46.28
2681;BME280;1350;42.134;24.708;2022-10-26T06:12:36;99838.44;;;26.23;46.52
2681;BME280;1350;42.134;24.708;2022-10-26T06:15:03;99852.63;;;26.58;45.60
2681;BME280;1350;42.134;24.708;2022-10-26T06:17:39;99844.69;;;26.95;44.44
2681;BME280;1350;42.134;24.708;2022-10-26T06:20:25;99842.91;;;27.10;44.42
2681;BME280;1350;42.134;24.708;2022-10-26T06:23:08;99845.47;;;27.03;44.05
2681;BME280;1350;42.134;24.708;2022-10-26T06:25:46;99845.44;;;27.11;43.89
2681;BME280;1350;42.134;24.708;2022-10-26T06:28:23;99846.84;;;27.38;43.63
2681;BME280;1350;42.134;24.708;2022-10-26T06:30:51;99846.22;;;27.58;42.94
2681;BME280;1350;42.134;24.708;2022-10-26T06:33:19;99854.56;;;27.79;43.07
2681;BME280;1350;42.134;24.708;2022-10-26T06:35:53;99851.13;;;28.23;42.06
2681;BME280;1350;42.134;24.708;2022-10-26T06:38:26;99857.72;;;28.43;41.97
2681;BME280;1350;42.134;24.708;2022-10-26T06:40:57;99854.75;;;28.81;40.98
2681;BME280;1350;42.134;24.708;2022-10-26T06:43:26;99847.75;;;29.43;39.95
2681;BME280;1350;42.134;24.708;2022-10-26T06:45:59;99856.69;;;29.16;40.18
2681;BME280;1350;42.134;24.708;2022-10-26T06:48:37;99855.75;;;29.09;40.35
2681;BME280;1350;42.134;24.708;2022-10-26T06:51:09;99859.91;;;29.20;39.79
2681;BME280;1350;42.134;24.708;2022-10-26T06:53:41;99868.00;;;28.99;39.57
2681;BME280;1350;42.134;24.708;2022-10-26T06:56:12;99870.06;;;29.26;39.81
2681;BME280;1350;42.134;24.708;2022-10-26T06:58:39;99871.19;;;29.17;39.83
2681;BME280;1350;42.134;24.708;2022-10-26T07:01:09;99870.94;;;29.12;39.67
2681;BME280;1350;42.134;24.708;2022-10-26T07:03:37;99868.91;;;29.56;38.45
2681;BME280;1350;42.134;24.708;2022-10-26T07:06:04;99866.22;;;29.77;38.52
2681;BME280;1350;42.134;24.708;2022-10-26T07:08:31;99873.03;;;30.09;37.92
2681;BME280;1350;42.134;24.708;2022-10-26T07:10:57;99871.28;;;30.22;38.04
2681;BME280;1350;42.134;24.708;2022-10-26T07:13:26;99872.50;;;31.09;36.41
2681;BME280;1350;42.134;24.708;2022-10-26T07:15:52;99871.28;;;31.25;35.85
2681;BME280;1350;42.134;24.708;2022-10-26T07:18:19;99869.91;;;30.33;36.27
2681;BME280;1350;42.134;24.708;2022-10-26T07:20:46;99867.25;;;30.18;36.72
2681;BME280;1350;42.134;24.708;2022-10-26T07:23:12;99871.31;;;30.01;37.40
2681;BME280;1350;42.134;24.708;2022-10-26T07:25:40;99866.47;;;30.24;37.04
2681;BME280;1350;42.134;24.708;2022-10-26T07:28:08;99876.97;;;30.76;36.33
2681;BME280;1350;42.134;24.708;2022-10-26T07:30:38;99878.69;;;30.83;35.65
2681;BME280;1350;42.134;24.708;2022-10-26T07:33:08;99874.09;;;30.97;35.40
2681;BME280;1350;42.134;24.708;2022-10-26T07:35:35;99882.38;;;31.57;35.21
2681;BME280;1350;42.134;24.708;2022-10-26T07:38:02;99873.47;;;31.29;35.46
2681;BME280;1350;42.134;24.708;2022-10-26T07:40:29;99871.28;;;31.18;35.06
2681;BME280;1350;42.134;24.708;2022-10-26T07:42:57;99871.53;;;30.82;35.46
2681;BME280;1350;42.134;24.708;2022-10-26T07:45:24;99870.13;;;30.65;35.82
2681;BME280;1350;42.134;24.708;2022-10-26T07:47:53;99862.22;;;30.49;36.05
2681;BME280;1350;42.134;24.708;2022-10-26T07:50:20;99855.00;;;29.93;36.21
2681;BME280;1350;42.134;24.708;2022-10-26T07:52:47;99854.34;;;29.91;36.73
2681;BME280;1350;42.134;24.708;2022-10-26T07:55:14;99852.56;;;30.05;36.69
2681;BME280;1350;42.134;24.708;2022-10-26T07:57:41;99856.06;;;30.41;35.96
2681;BME280;1350;42.134;24.708;2022-10-26T08:00:08;99857.75;;;30.42;36.44
2681;BME280;1350;42.134;24.708;2022-10-26T08:02:35;99855.28;;;29.98;36.82
2681;BME280;1350;42.134;24.708;2022-10-26T08:05:04;99865.00;;;30.56;36.63
2681;BME280;1350;42.134;24.708;2022-10-26T08:07:31;99864.50;;;30.73;36.64
2681;BME280;1350;42.134;24.708;2022-10-26T08:09:58;99858.34;;;31.05;35.95
2681;BME280;1350;42.134;24.708;2022-10-26T08:12:25;99856.81;;;31.31;35.92
2681;BME280;1350;42.134;24.708;2022-10-26T08:14:52;99862.69;;;30.87;36.34
2681;BME280;1350;42.134;24.708;2022-10-26T08:17:18;99866.31;;;30.66;36.72
2681;BME280;1350;42.134;24.708;2022-10-26T08:19:46;99858.13;;;31.54;35.51
2681;BME280;1350;42.134;24.708;2022-10-26T08:22:16;99865.41;;;32.01;35.18
2681;BME280;1350;42.134;24.708;2022-10-26T08:24:43;99866.25;;;32.14;34.52
2681;BME280;1350;42.134;24.708;2022-10-26T08:27:11;99863.88;;;32.70;34.24
2681;BME280;1350;42.134;24.708;2022-10-26T08:29:38;99863.84;;;32.96;33.81
2681;BME280;1350;42.134;24.708;2022-10-26T08:32:05;99855.84;;;32.75;33.35
2681;BME280;1350;42.134;24.708;2022-10-26T08:34:31;99860.53;;;32.48;34.00
2681;BME280;1350;42.134;24.708;2022-10-26T08:36:58;99858.44;;;32.11;34.12
2681;BME280;1350;42.134;24.708;2022-10-26T08:39:26;99865.19;;;32.54;33.90
2681;BME280;1350;42.134;24.708;2022-10-26T08:42:00;99856.19;;;33.05;32.84
2681;BME280;1350;42.134;24.708;2022-10-26T08:44:32;99846.34;;;33.41;32.69
2681;BME280;1350;42.134;24.708;2022-10-26T08:47:05;99861.22;;;33.58;32.07
2681;BME280;1350;42.134;24.708;2022-10-26T08:49:40;99859.22;;;32.90;32.64
2681;BME280;1350;42.134;24.708;2022-10-26T08:52:11;99855.25;;;33.30;32.55
2681;BME280;1350;42.134;24.708;2022-10-26T08:54:43;99853.38;;;33.18;32.39
2681;BME280;1350;42.134;24.708;2022-10-26T08:57:16;99853.47;;;32.85;33.04
2681;BME280;1350;42.134;24.708;2022-10-26T08:59:47;99850.69;;;33.05;31.51
2681;BME280;1350;42.134;24.708;2022-10-26T09:02:16;99858.03;;;32.01;32.01
2681;BME280;1350;42.134;24.708;2022-10-26T09:04:43;99845.97;;;32.22;32.50
2681;BME280;1350;42.134;24.708;2022-10-26T09:07:17;99841.50;;;32.60;32.11
2681;BME280;1350;42.134;24.708;2022-10-26T09:09:56;99844.00;;;32.81;31.72
2681;BME280;1350;42.134;24.708;2022-10-26T09:12:37;99841.03;;;33.33;31.37
2681;BME280;1350;42.134;24.708;2022-10-26T09:15:13;99848.34;;;33.52;31.55
2681;BME280;1350;42.134;24.708;2022-10-26T09:17:50;99844.53;;;34.15;30.93
2681;BME280;1350;42.134;24.708;2022-10-26T09:23:35;99848.13;;;35.01;29.60
2681;BME280;1350;42.134;24.708;2022-10-26T09:26:18;99848.81;;;34.11;30.99
2681;BME280;1350;42.134;24.708;2022-10-26T09:28:50;99846.78;;;33.38;30.51
2681;BME280;1350;42.134;24.708;2022-10-26T09:31:17;99843.75;;;32.96;31.40
2681;BME280;1350;42.134;24.708;2022-10-26T09:33:45;99842.63;;;33.10;30.95
2681;BME280;1350;42.134;24.708;2022-10-26T09:36:16;99839.97;;;33.41;30.76
2681;BME280;1350;42.134;24.708;2022-10-26T09:38:49;99834.13;;;33.24;30.74
2681;BME280;1350;42.134;24.708;2022-10-26T09:41:24;99841.75;;;33.16;30.32
2681;BME280;1350;42.134;24.708;2022-10-26T09:43:56;99837.13;;;32.39;31.37
2681;BME280;1350;42.134;24.708;2022-10-26T09:46:30;99836.78;;;32.87;31.12
2681;BME280;1350;42.134;24.708;2022-10-26T09:49:02;99833.19;;;33.43;30.30
2681;BME280;1350;42.134;24.708;2022-10-26T09:51:31;99832.00;;;33.95;30.10
2681;BME280;1350;42.134;24.708;2022-10-26T09:53:58;99828.00;;;34.15;29.57
2681;BME280;1350;42.134;24.708;2022-10-26T09:56:29;99828.81;;;34.22;30.29
2681;BME280;1350;42.134;24.708;2022-10-26T09:59:00;99826.44;;;34.01;30.00
2681;BME280;1350;42.134;24.708;2022-10-26T10:01:29;99825.47;;;33.58;29.61
2681;BME280;1350;42.134;24.708;2022-10-26T10:04:16;99821.31;;;34.30;30.29
2681;BME280;1350;42.134;24.708;2022-10-26T10:06:46;99819.34;;;33.87;29.63
2681;BME280;1350;42.134;24.708;2022-10-26T10:09:14;99817.88;;;33.54;30.41
2681;BME280;1350;42.134;24.708;2022-10-26T10:11:45;99808.56;;;33.55;31.14
2681;BME280;1350;42.134;24.708;2022-10-26T10:14:20;99803.50;;;33.52;30.42
2681;BME280;1350;42.134;24.708;2022-10-26T10:16:54;99806.38;;;33.63;30.26
2681;BME280;1350;42.134;24.708;2022-10-26T10:19:24;99811.00;;;33.69;29.97
2681;BME280;1350;42.134;24.708;2022-10-26T10:21:53;99800.56;;;33.47;30.20
2681;BME280;1350;42.134;24.708;2022-10-26T10:24:26;99801.25;;;33.42;30.43
2681;BME280;1350;42.134;24.708;2022-10-26T10:27:00;99797.59;;;33.48;30.25
2681;BME280;1350;42.134;24.708;2022-10-26T10:29:29;99797.69;;;33.97;30.19
2681;BME280;1350;42.134;24.708;2022-10-26T10:31:58;99797.28;;;33.94;29.78
2681;BME280;1350;42.134;24.708;2022-10-26T10:34:25;99793.66;;;33.69;30.46
2681;BME280;1350;42.134;24.708;2022-10-26T10:36:52;99796.03;;;33.59;30.29
2681;BME280;1350;42.134;24.708;2022-10-26T10:39:37;99788.81;;;33.64;29.87
2681;BME280;1350;42.134;24.708;2022-10-26T10:42:15;99783.59;;;33.56;30.56
2681;BME280;1350;42.134;24.708;2022-10-26T10:44:44;99782.31;;;33.52;30.30
2681;BME280;1350;42.134;24.708;2022-10-26T10:47:19;99780.69;;;33.45;30.18
2681;BME280;1350;42.134;24.708;2022-10-26T10:49:51;99772.03;;;33.04;30.14
2681;BME280;1350;42.134;24.708;2022-10-26T10:52:28;99763.66;;;32.92;30.69
2681;BME280;1350;42.134;24.708;2022-10-26T10:55:13;99762.31;;;33.39;30.38
2681;BME280;1350;42.134;24.708;2022-10-26T10:57:53;99771.63;;;33.38;30.42
2681;BME280;1350;42.134;24.708;2022-10-26T11:00:24;99763.28;;;33.51;30.24
2681;BME280;1350;42.134;24.708;2022-10-26T11:06:02;99751.84;;;33.54;29.89
2681;BME280;1350;42.134;24.708;2022-10-26T11:08:35;99743.94;;;33.33;29.68
2681;BME280;1350;42.134;24.708;2022-10-26T11:11:08;99749.00;;;33.36;29.97
2681;BME280;1350;42.134;24.708;2022-10-26T11:13:42;99741.25;;;32.89;30.22
2681;BME280;1350;42.134;24.708;2022-10-26T11:16:15;99741.38;;;32.43;30.65
2681;BME280;1350;42.134;24.708;2022-10-26T11:18:47;99742.91;;;32.83;31.15
2681;BME280;1350;42.134;24.708;2022-10-26T11:21:22;99740.44;;;33.19;30.31
2681;BME280;1350;42.134;24.708;2022-10-26T11:23:55;99736.75;;;32.94;30.06
2681;BME280;1350;42.134;24.708;2022-10-26T11:26:27;99728.28;;;32.51;30.65
2681;BME280;1350;42.134;24.708;2022-10-26T11:29:00;99735.19;;;32.67;30.25
2681;BME280;1350;42.134;24.708;2022-10-26T11:31:31;99731.91;;;32.39;31.25
2681;BME280;1350;42.134;24.708;2022-10-26T11:34:23;99727.16;;;32.72;30.47
2681;BME280;1350;42.134;24.708;2022-10-26T11:36:55;99726.16;;;33.04;30.37
2681;BME280;1350;42.134;24.708;2022-10-26T11:39:31;99721.78;;;32.90;30.59
2681;BME280;1350;42.134;24.708;2022-10-26T11:42:04;99718.91;;;32.65;30.05
2681;BME280;1350;42.134;24.708;2022-10-26T11:44:37;99725.06;;;32.61;30.39
2681;BME280;1350;42.134;24.708;2022-10-26T11:47:12;99735.13;;;31.97;31.23
2681;BME280;1350;42.134;24.708;2022-10-26T11:49:43;99726.00;;;32.35;30.37
2681;BME280;1350;42.134;24.708;2022-10-26T11:52:17;99725.38;;;32.84;30.02
2681;BME280;1350;42.134;24.708;2022-10-26T11:54:47;99726.66;;;32.88;29.80
2681;BME280;1350;42.134;24.708;2022-10-26T11:57:17;99721.44;;;32.67;29.92
2681;BME280;1350;42.134;24.708;2022-10-26T11:59:49;99719.25;;;32.82;29.71
2681;BME280;1350;42.134;24.708;2022-10-26T12:02:19;99714.47;;;31.94;30.07
2681;BME280;1350;42.134;24.708;2022-10-26T12:04:52;99714.88;;;32.04;30.64
2681;BME280;1350;42.134;24.708;2022-10-26T12:07:23;99714.44;;;32.07;30.40
2681;BME280;1350;42.134;24.708;2022-10-26T12:09:53;99712.97;;;31.53;31.15
2681;BME280;1350;42.134;24.708;2022-10-26T12:12:25;99706.22;;;31.94;30.56
2681;BME280;1350;42.134;24.708;2022-10-26T12:15:04;99711.72;;;31.55;30.16
2681;BME280;1350;42.134;24.708;2022-10-26T12:17:37;99712.75;;;31.80;30.45
2681;BME280;1350;42.134;24.708;2022-10-26T12:20:42;99709.41;;;31.65;30.84
2681;BME280;1350;42.134;24.708;2022-10-26T12:23:14;99706.00;;;31.63;30.92
2681;BME280;1350;42.134;24.708;2022-10-26T12:25:42;99706.84;;;32.03;30.81
2681;BME280;1350;42.134;24.708;2022-10-26T12:28:38;99697.34;;;31.99;30.35
2681;BME280;1350;42.134;24.708;2022-10-26T12:31:41;99705.16;;;31.95;30.13
2681;BME280;1350;42.134;24.708;2022-10-26T12:34:10;99699.66;;;31.76;30.51
2681;BME280;1350;42.134;24.708;2022-10-26T12:36:47;99696.72;;;31.97;30.22
2681;BME280;1350;42.134;24.708;2022-10-26T12:39:30;99698.84;;;31.95;30.67
2681;BME280;1350;42.134;24.708;2022-10-26T12:42:08;99703.69;;;31.99;30.42
2681;BME280;1350;42.134;24.708;2022-10-26T12:44:38;99700.28;;;32.10;29.98
2681;BME280;1350;42.134;24.708;2022-10-26T12:47:07;99705.28;;;32.33;29.91
2681;BME280;1350;42.134;24.708;2022-10-26T12:49:58;99707.91;;;31.69;29.79
2681;BME280;1350;42.134;24.708;2022-10-26T12:52:40;99711.72;;;31.75;29.43
2681;BME280;1350;42.134;24.708;2022-10-26T13:07:35;99702.22;;;28.78;35.19
2681;BME280;1350;42.134;24.708;2022-10-26T13:10:04;99700.44;;;28.71;35.34
2681;BME280;1350;42.134;24.708;2022-10-26T13:12:37;99703.72;;;28.31;35.72
2681;BME280;1350;42.134;24.708;2022-10-26T13:15:19;99704.63;;;27.94;36.33
2681;BME280;1350;42.134;24.708;2022-10-26T13:17:53;99704.81;;;27.41;36.82
2681;BME280;1350;42.134;24.708;2022-10-26T13:20:22;99696.72;;;27.33;36.95
2681;BME280;1350;42.134;24.708;2022-10-26T13:22:51;99696.41;;;27.05;37.40
2681;BME280;1350;42.134;24.708;2022-10-26T13:25:22;99703.66;;;27.13;37.43
2681;BME280;1350;42.134;24.708;2022-10-26T13:27:58;99700.59;;;27.38;37.45
2681;BME280;1350;42.134;24.708;2022-10-26T13:30:44;99706.81;;;27.24;37.14
2681;BME280;1350;42.134;24.708;2022-10-26T13:33:23;99696.84;;;27.39;37.30
2681;BME280;1350;42.134;24.708;2022-10-26T13:35:54;99698.91;;;27.15;37.26
2681;BME280;1350;42.134;24.708;2022-10-26T13:38:27;99700.31;;;27.11;37.73
2681;BME280;1350;42.134;24.708;2022-10-26T13:41:04;99703.59;;;26.76;38.13
2681;BME280;1350;42.134;24.708;2022-10-26T13:43:32;99705.53;;;26.59;38.28
2681;BME280;1350;42.134;24.708;2022-10-26T13:46:03;99710.97;;;26.67;38.25
2681;BME280;1350;42.134;24.708;2022-10-26T13:48:36;99708.75;;;26.63;38.58
2681;BME280;1350;42.134;24.708;2022-10-26T13:51:11;99711.00;;;26.51;38.28
2681;BME280;1350;42.134;24.708;2022-10-26T13:53:44;99710.25;;;26.34;38.62